createdAt,value
2018-07-25T00:02:07.253Z,100123.12
2018-07-25T00:04:35.991Z,100125.25
2018-07-25T00:07:09.878Z,100121.75
2018-07-25T00:09:38.639Z,100125.24
2018-07-25T00:12:07.645Z,100124.87
2018-07-25T00:14:36.447Z,100123.50
2018-07-25T00:17:05.355Z,100126.02
2018-07-25T00:19:34.895Z,100131.50
2018-07-25T00:22:03.653Z,100127.97
2018-07-25T00:24:32.487Z,100122.54
2018-07-25T00:27:01.292Z,100123.86
2018-07-25T00:29:29.973Z,100119.77
2018-07-25T00:31:58.883Z,100120.92
2018-07-25T00:34:27.592Z,100123.67
2018-07-25T00:36:56.403Z,100121.72
2018-07-25T00:39:25.205Z,100121.14
2018-07-25T00:41:54.723Z,100117.05
2018-07-25T00:44:23.716Z,100110.02
2018-07-25T00:46:52.381Z,100114.70
2018-07-25T00:49:21.153Z,100117.42
2018-07-25T00:51:49.863Z,100112.73
2018-07-25T00:54:18.609Z,100111.55
2018-07-25T00:56:48.045Z,100111.75
2018-07-25T00:59:16.925Z,100116.62
2018-07-25T01:01:46.242Z,100119.93
2018-07-25T01:04:14.989Z,100120.31
2018-07-25T01:06:43.864Z,100116.39
2018-07-25T01:09:13.421Z,100116.77
2018-07-25T01:11:42.150Z,100117.35
2018-07-25T01:14:10.863Z,100114.22
2018-07-25T01:16:39.765Z,100114.81
2018-07-25T01:19:08.485Z,100111.50
2018-07-25T01:21:37.783Z,100112.48
2018-07-25T01:24:06.569Z,100111.13
2018-07-25T01:26:36.149Z,100122.37
2018-07-25T01:29:04.751Z,100121.42
2018-07-25T01:31:33.553Z,100120.66
2018-07-25T01:34:02.285Z,100119.66
2018-07-25T01:36:31.225Z,100117.29
2018-07-25T01:39:00.091Z,100122.73
2018-07-25T01:41:28.779Z,100125.64
2018-07-25T01:43:57.521Z,100126.59
2018-07-25T01:46:26.383Z,100124.23
2018-07-25T01:48:55.197Z,100119.96
2018-07-25T01:51:23.963Z,100123.64
2018-07-25T01:53:52.599Z,100118.97
2018-07-25T01:56:21.441Z,100112.55
2018-07-25T01:58:50.381Z,100116.45
2018-07-25T02:01:19.248Z,100123.64
2018-07-25T02:03:49.148Z,100120.35
2018-07-25T02:06:19.100Z,100116.45
2018-07-25T02:08:48.057Z,100114.68
2018-07-25T02:11:16.985Z,100111.92
2018-07-25T02:13:45.668Z,100113.88
2018-07-25T02:16:14.182Z,100112.28
2018-07-25T02:18:52.195Z,100111.91
2018-07-25T02:21:20.608Z,100115.17
2018-07-25T02:23:49.074Z,100122.92
2018-07-25T02:26:17.595Z,100115.56
2018-07-25T02:28:46.175Z,100121.95
2018-07-25T02:31:14.599Z,100118.08
2018-07-25T02:33:48.404Z,100122.34
2018-07-25T02:36:16.856Z,100128.17
2018-07-25T02:38:45.557Z,100121.52
2018-07-25T02:41:13.943Z,100119.52
2018-07-25T02:43:42.660Z,100123.72
2018-07-25T02:46:11.108Z,100122.51
2018-07-25T02:48:47.570Z,100125.80
2018-07-25T02:51:15.973Z,100129.08
2018-07-25T02:53:44.732Z,100135.08
2018-07-25T02:56:13.192Z,100131.94
2018-07-25T02:58:46.675Z,100135.02
2018-07-25T03:01:15.067Z,100134.42
2018-07-25T03:03:43.444Z,100134.00
2018-07-25T03:06:12.236Z,100138.08
2018-07-25T03:08:41.534Z,100132.43
2018-07-25T03:11:10.096Z,100139.41
2018-07-25T03:13:38.759Z,100138.05
2018-07-25T03:16:08.362Z,100138.98
2018-07-25T03:18:37.020Z,100134.31
2018-07-25T03:21:05.439Z,100140.13
2018-07-25T03:23:35.821Z,100138.95
2018-07-25T03:26:04.394Z,100138.73
2018-07-25T03:28:32.926Z,100144.91
2018-07-25T03:31:01.736Z,100139.61
2018-07-25T03:33:30.200Z,100145.60
2018-07-25T03:35:59.727Z,100146.16
2018-07-25T03:38:28.762Z,100155.67
2018-07-25T03:40:57.211Z,100156.05
2018-07-25T03:43:26.197Z,100155.45
2018-07-25T03:45:54.715Z,100157.95
2018-07-25T03:48:23.087Z,100160.09
2018-07-25T03:50:51.557Z,100158.73
2018-07-25T03:53:20.312Z,100159.31
2018-07-25T03:55:48.750Z,100159.48
2018-07-25T03:58:17.276Z,100160.84
2018-07-25T04:00:45.705Z,100158.34
2018-07-25T04:03:14.151Z,100169.20
2018-07-25T04:05:42.607Z,100163.77
2018-07-25T04:08:11.172Z,100164.33
2018-07-25T04:10:41.688Z,100158.90
2018-07-25T04:13:10.479Z,100155.41
2018-07-25T04:15:38.965Z,100163.73
2018-07-25T04:18:07.682Z,100164.12
2018-07-25T04:20:36.387Z,100165.09
2018-07-25T04:23:04.939Z,100171.30
2018-07-25T04:25:33.330Z,100168.19
2018-07-25T04:28:02.109Z,100165.26
2018-07-25T04:30:30.598Z,100170.86
2018-07-25T04:32:59.018Z,100172.78
2018-07-25T04:35:27.462Z,100172.02
2018-07-25T04:37:56.111Z,100166.16
2018-07-25T04:40:24.561Z,100171.03
2018-07-25T04:42:53.881Z,100174.31
2018-07-25T04:45:22.373Z,100175.67
2018-07-25T04:47:50.824Z,100181.31
2018-07-25T04:50:19.746Z,100174.52
2018-07-25T04:52:48.156Z,100179.23
2018-07-25T04:55:16.596Z,100191.28
2018-07-25T04:57:45.089Z,100189.88
2018-07-25T05:00:13.614Z,100189.19
2018-07-25T05:02:42.676Z,100188.77
2018-07-25T05:05:11.390Z,100194.04
2018-07-25T05:07:40.118Z,100189.57
2018-07-25T05:10:08.728Z,100189.92
2018-07-25T05:12:37.383Z,100198.05
2018-07-25T05:15:06.686Z,100196.23
2018-07-25T05:17:35.502Z,100199.28
2018-07-25T05:20:03.960Z,100207.08
2018-07-25T05:22:33.158Z,100199.74
2018-07-25T05:25:01.626Z,100202.09
2018-07-25T05:27:30.142Z,100207.19
2018-07-25T05:29:58.670Z,100206.64
2018-07-25T05:32:27.086Z,100216.76
2018-07-25T05:34:55.548Z,100218.91
2018-07-25T05:37:24.112Z,100216.03
2018-07-25T05:39:52.663Z,100220.70
2018-07-25T05:42:21.163Z,100215.70
2018-07-25T05:44:50.067Z,100223.47
2018-07-25T05:47:18.742Z,100220.55
2018-07-25T05:49:47.394Z,100224.66
2018-07-25T05:52:15.940Z,100218.89
2018-07-25T05:54:44.908Z,100227.65
2018-07-25T05:57:13.946Z,100228.83
2018-07-25T05:59:42.370Z,100223.78
2018-07-25T06:02:11.117Z,100227.31
2018-07-25T06:04:39.537Z,100226.28
2018-07-25T06:07:09.239Z,100231.16
2018-07-25T06:09:37.980Z,100228.66
2018-07-25T06:12:06.763Z,100236.86
2018-07-25T06:14:35.526Z,100234.19
2018-07-25T06:17:04.148Z,100236.35
2018-07-25T06:19:32.559Z,100233.67
2018-07-25T06:22:01.363Z,100232.73
2018-07-25T06:24:29.808Z,100227.16
2018-07-25T06:26:58.589Z,100225.84
2018-07-25T06:29:27.098Z,100227.06
2018-07-25T06:31:55.570Z,100229.02
2018-07-25T06:34:24.002Z,100228.67
2018-07-25T06:42:43.136Z,100232.40
2018-07-25T06:45:11.621Z,100230.27
2018-07-25T06:53:26.912Z,100236.47
2018-07-25T06:55:55.605Z,100239.81
2018-07-25T06:58:33.794Z,100239.84
2018-07-25T07:01:02.750Z,100241.80
2018-07-25T07:03:31.287Z,100249.98
2018-07-25T07:05:59.798Z,100245.34
2018-07-25T07:08:28.540Z,100246.73
2018-07-25T07:10:57.130Z,100247.52
2018-07-25T07:13:25.671Z,100245.98
2018-07-25T07:15:54.314Z,100247.37
2018-07-25T07:18:22.889Z,100243.11
2018-07-25T07:20:51.366Z,100245.06
2018-07-25T07:23:19.885Z,100249.40
2018-07-25T07:25:48.540Z,100248.89
2018-07-25T07:28:17.089Z,100246.77
2018-07-25T07:30:45.507Z,100242.52
2018-07-25T07:33:14.116Z,100249.34
2018-07-25T07:35:42.813Z,100242.75
2018-07-25T07:38:11.444Z,100239.84
2018-07-25T07:40:39.960Z,100248.64
2018-07-25T07:43:08.735Z,100244.37
2018-07-25T07:45:37.225Z,100248.68
2018-07-25T07:48:06.047Z,100253.57
2018-07-25T07:50:34.655Z,100249.50
2018-07-25T07:53:03.206Z,100254.41
2018-07-25T07:55:31.717Z,100250.13
2018-07-25T07:58:00.681Z,100250.92
2018-07-25T08:00:29.165Z,100260.08
2018-07-25T08:02:57.629Z,100249.34
2018-07-25T08:05:26.434Z,100253.06
2018-07-25T08:07:54.972Z,100251.33
2018-07-25T08:10:23.658Z,100249.77
2018-07-25T08:12:52.375Z,100247.44
2018-07-25T08:15:20.923Z,100248.78
2018-07-25T08:24:35.841Z,100249.38
2018-07-25T08:27:04.381Z,100248.42
2018-07-25T08:29:32.861Z,100245.33
2018-07-25T08:32:01.413Z,100241.23
2018-07-25T08:34:30.102Z,100243.17
2018-07-25T08:36:58.775Z,100238.69
2018-07-25T08:39:27.251Z,100247.05
2018-07-25T08:41:55.714Z,100238.09
2018-07-25T08:44:24.290Z,100240.23
2018-07-25T08:46:52.803Z,100245.30
2018-07-25T08:49:21.289Z,100243.33
2018-07-25T08:51:49.741Z,100252.09
2018-07-25T08:54:18.198Z,100249.73
2018-07-25T08:56:47.136Z,100251.89
2018-07-25T08:59:15.596Z,100249.16
2018-07-25T09:01:44.282Z,100249.77
2018-07-25T09:04:12.692Z,100242.13
2018-07-25T09:06:41.152Z,100249.16
2018-07-25T09:09:10.686Z,100245.27
2018-07-25T09:11:39.610Z,100243.70
2018-07-25T09:14:08.144Z,100239.23
2018-07-25T09:16:36.562Z,100239.00
2018-07-25T09:19:05.225Z,100240.16
2018-07-25T09:21:33.830Z,100241.10
2018-07-25T09:24:02.644Z,100236.74
2018-07-25T09:26:31.191Z,100242.36
2018-07-25T09:28:59.878Z,100240.98
2018-07-25T09:31:28.573Z,100237.83
2018-07-25T09:33:57.383Z,100237.16
2018-07-25T09:36:25.950Z,100234.75
2018-07-25T09:38:55.280Z,100237.08
2018-07-25T09:41:24.184Z,100237.66
2018-07-25T09:43:52.720Z,100234.92
2018-07-25T09:46:21.305Z,100235.50
2018-07-25T09:48:49.911Z,100238.08
2018-07-25T09:51:18.698Z,100237.55
2018-07-25T09:53:47.213Z,100228.01
2018-07-25T09:56:15.821Z,100227.06
2018-07-25T09:58:45.014Z,100226.89
2018-07-25T10:01:13.723Z,100228.86
2018-07-25T10:03:42.308Z,100228.86
2018-07-25T10:06:10.964Z,100228.48
2018-07-25T10:08:39.360Z,100224.78
2018-07-25T10:11:07.860Z,100229.72
2018-07-25T10:13:36.468Z,100222.33
2018-07-25T10:16:04.948Z,100221.57
2018-07-25T10:18:33.629Z,100213.31
2018-07-25T10:21:02.352Z,100225.34
2018-07-25T10:23:31.074Z,100223.33
2018-07-25T10:25:59.760Z,100215.67
2018-07-25T10:28:28.515Z,100223.56
2018-07-25T10:30:57.078Z,100220.16
2018-07-25T10:33:25.912Z,100215.92
2018-07-25T10:35:54.773Z,100219.58
2018-07-25T10:38:23.360Z,100216.84
2018-07-25T10:40:52.080Z,100224.33
2018-07-25T10:43:20.763Z,100211.39
2018-07-25T10:45:49.782Z,100214.30
2018-07-25T10:48:18.282Z,100220.31
2018-07-25T10:50:46.800Z,100219.58
2018-07-25T10:53:15.319Z,100216.08
2018-07-25T10:55:43.838Z,100208.16
2018-07-25T10:58:12.594Z,100208.86
2018-07-25T11:00:41.477Z,100203.97
2018-07-25T11:03:10.286Z,100205.94
2018-07-25T11:05:38.848Z,100197.47
2018-07-25T11:08:07.490Z,100190.30
2018-07-25T11:10:36.204Z,100193.56
2018-07-25T11:13:04.752Z,100188.36
2018-07-25T11:15:33.222Z,100183.27
2018-07-25T11:18:01.860Z,100193.45
2018-07-25T11:20:30.431Z,100185.77
2018-07-25T11:22:59.225Z,100191.69
2018-07-25T11:28:02.508Z,100186.52
2018-07-25T11:30:31.004Z,100192.95
2018-07-25T11:32:59.479Z,100194.81
2018-07-25T11:35:27.906Z,100182.22
2018-07-25T11:37:57.230Z,100184.92
2018-07-25T11:40:25.878Z,100176.48
2018-07-25T11:42:54.798Z,100177.62
2018-07-25T11:45:24.164Z,100176.61
2018-07-25T11:47:52.672Z,100174.50
2018-07-25T11:50:21.602Z,100168.65
2018-07-25T11:52:50.352Z,100168.14
2018-07-25T11:55:19.057Z,100162.34
2018-07-25T11:57:47.638Z,100159.70
2018-07-25T12:00:16.060Z,100166.92
2018-07-25T12:02:44.538Z,100154.19
2018-07-25T12:05:12.963Z,100149.45
2018-07-25T12:07:41.347Z,100151.53
2018-07-25T12:10:10.199Z,100153.25
2018-07-25T12:12:38.670Z,100147.78
2018-07-25T12:15:08.358Z,100155.50
2018-07-25T12:17:37.121Z,100152.17
2018-07-25T12:20:05.981Z,100156.84
2018-07-25T12:22:34.356Z,100151.80
2018-07-25T12:25:03.149Z,100147.58
2018-07-25T12:27:31.921Z,100141.45
2018-07-25T12:30:00.398Z,100139.10
2018-07-25T12:32:28.827Z,100143.13
2018-07-25T12:34:57.391Z,100146.66
2018-07-25T12:37:25.967Z,100137.66
2018-07-25T12:39:54.542Z,100134.48
2018-07-25T12:42:22.949Z,100140.54
2018-07-25T12:44:51.474Z,100128.49
2018-07-25T12:47:19.959Z,100130.80
2018-07-25T12:49:48.388Z,100131.00
2018-07-25T12:52:17.099Z,100129.61
2018-07-25T12:54:45.707Z,100130.59
2018-07-25T12:57:14.171Z,100126.62
2018-07-25T12:59:42.827Z,100127.23
2018-07-25T13:02:11.294Z,100120.24
2018-07-25T13:04:39.917Z,100117.86
2018-07-25T13:07:08.527Z,100108.42
2018-07-25T13:09:37.232Z,100113.23
2018-07-25T13:12:05.997Z,100111.52
2018-07-25T13:14:34.578Z,100112.20
2018-07-25T13:17:03.123Z,100113.59
2018-07-25T13:19:31.651Z,100097.72
2018-07-25T13:22:00.188Z,100102.20
2018-07-25T13:24:28.918Z,100103.67
2018-07-25T13:27:02.514Z,100098.52
2018-07-25T13:29:31.007Z,100092.47
2018-07-25T13:31:59.473Z,100091.66
2018-07-25T13:34:28.196Z,100096.67
2018-07-25T13:36:56.800Z,100097.39
2018-07-25T13:39:25.600Z,100083.41
2018-07-25T13:41:54.046Z,100087.17
2018-07-25T13:44:22.555Z,100078.39
2018-07-25T13:46:51.188Z,100076.66
2018-07-25T13:49:19.683Z,100069.16
2018-07-25T13:51:48.140Z,100067.71
2018-07-25T13:54:16.950Z,100069.28
2018-07-25T13:56:45.612Z,100058.28
2018-07-25T13:59:14.539Z,100059.98
2018-07-25T14:01:43.103Z,100056.54
2018-07-25T14:04:11.847Z,100050.65
2018-07-25T14:06:40.309Z,100051.75
2018-07-25T14:09:10.535Z,100057.10
2018-07-25T14:11:39.383Z,100047.11
2018-07-25T14:14:08.075Z,100050.00
2018-07-25T14:16:36.593Z,100049.55
2018-07-25T14:19:05.283Z,100049.89
2018-07-25T14:21:34.065Z,100047.97
2018-07-25T14:24:03.042Z,100044.77
2018-07-25T14:26:31.599Z,100042.23
2018-07-25T14:29:01.453Z,100039.68
2018-07-25T14:31:30.123Z,100045.54
2018-07-25T14:33:58.811Z,100041.44
2018-07-25T14:36:27.476Z,100041.39
2018-07-25T14:39:01.224Z,100038.05
2018-07-25T14:41:30.180Z,100038.22
2018-07-25T14:43:58.884Z,100041.46
2018-07-25T14:46:28.354Z,100031.85
2018-07-25T14:48:57.171Z,100036.90
2018-07-25T14:51:26.851Z,100037.59
2018-07-25T14:53:56.280Z,100040.58
2018-07-25T14:56:24.953Z,100040.92
2018-07-25T14:58:53.748Z,100033.13
2018-07-25T15:01:22.598Z,100034.59
2018-07-25T15:03:51.238Z,100033.09
2018-07-25T15:06:19.922Z,100030.98
2018-07-25T15:08:49.255Z,100031.13
2018-07-25T15:11:17.993Z,100025.26
2018-07-25T15:13:47.571Z,100034.95
2018-07-25T15:16:17.362Z,100035.34
2018-07-25T15:18:46.210Z,100035.44
2018-07-25T15:21:15.022Z,100035.59
2018-07-25T15:24:04.452Z,100025.92
2018-07-25T15:26:33.127Z,100037.86
2018-07-25T15:29:07.502Z,100036.06
2018-07-25T15:31:35.914Z,100030.20
2018-07-25T15:34:04.771Z,100024.10
2018-07-25T15:36:46.605Z,100029.45
2018-07-25T15:39:17.561Z,100020.69
2018-07-25T15:41:46.985Z,100022.50
2018-07-25T15:44:16.096Z,100016.47
2018-07-25T15:46:45.282Z,100015.02
2018-07-25T15:49:13.865Z,100017.58
2018-07-25T15:51:42.341Z,100007.88
2018-07-25T15:54:10.877Z,100010.94
2018-07-25T15:56:39.767Z,100007.33
2018-07-25T15:59:08.909Z,100007.26
2018-07-25T16:01:37.724Z,100003.64
2018-07-25T16:04:06.271Z,100011.03
2018-07-25T16:06:34.735Z,100016.24
2018-07-25T16:09:04.657Z,100010.56
2018-07-25T16:11:33.498Z,100013.31
2018-07-25T16:14:02.029Z,100008.33
2018-07-25T16:16:30.547Z,100011.43
2018-07-25T16:18:59.166Z,100009.34
2018-07-25T16:21:27.672Z,100000.05
2018-07-25T16:23:56.216Z,99996.75
2018-07-25T16:26:24.542Z,100003.88
2018-07-25T16:28:53.399Z,100002.94
2018-07-25T16:31:21.904Z,100001.12
2018-07-25T16:33:50.317Z,100003.36
2018-07-25T16:36:18.875Z,100005.94
2018-07-25T16:38:47.370Z,100001.62
2018-07-25T16:41:15.873Z,99993.75
2018-07-25T16:43:44.283Z,99997.69
2018-07-25T16:46:12.789Z,100001.62
2018-07-25T16:48:41.206Z,100001.81
2018-07-25T16:51:09.703Z,99999.06
2018-07-25T16:53:38.125Z,99996.14
2018-07-25T16:56:06.928Z,99993.39
2018-07-25T16:58:35.633Z,99997.94
2018-07-25T17:01:04.089Z,100003.61
2018-07-25T17:03:32.952Z,100002.63
2018-07-25T17:06:01.703Z,99996.27
2018-07-25T17:08:35.343Z,99999.51
2018-07-25T17:11:04.021Z,99995.23
2018-07-25T17:13:32.726Z,99996.50
2018-07-25T17:16:01.779Z,100000.53
2018-07-25T17:18:32.335Z,100005.48
2018-07-25T17:21:01.137Z,100006.42
2018-07-25T17:23:29.665Z,100007.16
2018-07-25T17:25:58.575Z,100002.67
2018-07-25T17:28:27.860Z,100007.73
2018-07-25T17:30:56.818Z,100010.48
2018-07-25T17:33:26.088Z,100009.36
2018-07-25T17:35:55.598Z,100006.42
2018-07-25T17:38:25.573Z,100005.73
2018-07-25T17:40:54.705Z,100011.72
2018-07-25T17:43:23.462Z,100015.72
2018-07-25T17:45:52.236Z,100021.52
2018-07-25T17:48:20.978Z,100016.33
2018-07-25T17:50:49.902Z,100026.64
2018-07-25T17:53:19.884Z,100024.53
2018-07-25T17:55:48.625Z,100026.52
2018-07-25T17:58:19.689Z,100025.14
2018-07-25T18:00:48.413Z,100028.97
2018-07-25T18:03:17.359Z,100030.95
2018-07-25T18:05:46.170Z,100038.30
2018-07-25T18:08:15.077Z,100036.56
2018-07-25T18:10:43.566Z,100040.67
2018-07-25T18:13:17.311Z,100040.67
2018-07-25T18:15:45.869Z,100046.26
2018-07-25T18:18:14.432Z,100050.06
2018-07-25T18:20:43.142Z,100053.84
2018-07-25T18:23:11.710Z,100055.89
2018-07-25T18:25:44.203Z,100062.98
2018-07-25T18:28:12.769Z,100068.88
2018-07-25T18:30:41.553Z,100070.73
2018-07-25T18:33:10.172Z,100070.97
2018-07-25T18:35:39.755Z,100074.74
2018-07-25T18:38:13.343Z,100072.05
2018-07-25T18:40:41.994Z,100078.55
2018-07-25T18:43:10.788Z,100081.71
2018-07-25T18:45:39.786Z,100083.47
2018-07-25T18:48:08.792Z,100079.22
2018-07-25T18:50:37.461Z,100085.74
2018-07-25T18:53:07.225Z,100082.71
2018-07-25T18:55:36.168Z,100088.01
2018-07-25T18:58:05.176Z,100086.88
2018-07-25T19:00:33.702Z,100088.48
2018-07-25T19:03:03.248Z,100089.30
2018-07-25T19:05:32.533Z,100093.48
2018-07-25T19:08:06.247Z,100094.91
2018-07-25T19:10:35.057Z,100095.91
2018-07-25T19:13:07.235Z,100099.91
2018-07-25T19:15:36.050Z,100102.09
2018-07-25T19:18:14.348Z,100107.00
2018-07-25T19:20:43.164Z,100104.72
2018-07-25T19:23:11.733Z,100107.51
2018-07-25T19:25:40.335Z,100109.30
2018-07-25T19:31:01.446Z,100111.14
2018-07-25T19:33:30.274Z,100121.92
2018-07-25T19:35:59.879Z,100127.22
2018-07-25T19:41:29.136Z,100128.52
2018-07-25T19:44:00.038Z,100125.63
2018-07-25T19:46:30.163Z,100127.22
2018-07-25T19:49:03.865Z,100134.14
2018-07-25T19:51:32.751Z,100137.49
2018-07-25T19:54:01.426Z,100140.69
2018-07-25T19:56:30.859Z,100139.73
2018-07-25T19:59:00.135Z,100142.16
2018-07-25T20:01:28.843Z,100149.23
2018-07-25T20:03:57.453Z,100149.27
2018-07-25T20:06:26.310Z,100147.36
2018-07-25T20:08:54.907Z,100142.52
2018-07-25T20:11:23.594Z,100152.11
2018-07-25T20:13:57.851Z,100154.84
2018-07-25T20:16:26.730Z,100155.48
2018-07-25T20:18:55.535Z,100161.95
2018-07-25T20:21:24.082Z,100163.33
2018-07-25T20:23:52.967Z,100166.48
2018-07-25T20:26:21.543Z,100176.06
2018-07-25T20:28:49.942Z,100176.70
2018-07-25T20:31:18.756Z,100174.02
2018-07-25T20:33:47.381Z,100186.20
2018-07-25T20:36:16.163Z,100186.04
2018-07-25T20:38:45.269Z,100186.67
2018-07-25T20:41:13.974Z,100182.78
2018-07-25T20:43:42.856Z,100179.87
2018-07-25T20:46:11.602Z,100186.97
2018-07-25T20:48:40.517Z,100187.18
2018-07-25T20:51:09.509Z,100184.28
2018-07-25T20:53:38.407Z,100185.09
2018-07-25T20:56:08.447Z,100193.90
2018-07-25T20:58:43.649Z,100193.13
2018-07-25T21:01:13.664Z,100203.31
2018-07-25T21:03:42.918Z,100197.67
2018-07-25T21:06:17.833Z,100189.87
2018-07-25T21:08:47.676Z,100198.84
2018-07-25T21:11:16.708Z,100199.48
2018-07-25T21:13:46.859Z,100196.77
2018-07-25T21:16:23.294Z,100207.35
2018-07-25T21:18:52.542Z,100208.55
2018-07-25T21:21:23.872Z,100207.39
2018-07-25T21:23:53.964Z,100217.97
2018-07-25T21:26:22.666Z,100217.80
2018-07-25T21:28:51.862Z,100219.97
2018-07-25T21:31:20.633Z,100220.20
2018-07-25T21:33:49.377Z,100223.56
2018-07-25T21:36:19.130Z,100218.91
2018-07-25T21:41:45.702Z,100220.25
2018-07-25T21:44:14.546Z,100222.39
2018-07-25T21:46:43.585Z,100220.27
2018-07-25T21:52:04.976Z,100227.16
2018-07-25T21:54:34.737Z,100221.14
2018-07-25T21:57:04.224Z,100224.25
2018-07-25T21:59:33.380Z,100218.98
2018-07-25T22:02:02.178Z,100222.52
2018-07-25T22:04:30.787Z,100225.27
2018-07-25T22:06:59.979Z,100231.91
2018-07-25T22:09:29.104Z,100223.34
2018-07-25T22:11:58.488Z,100225.27
2018-07-25T22:14:27.171Z,100228.81
2018-07-25T22:16:55.999Z,100227.65
2018-07-25T22:19:24.582Z,100229.98
2018-07-25T22:21:53.226Z,100227.85
2018-07-25T22:24:22.046Z,100224.16
2018-07-25T22:26:51.444Z,100230.78
2018-07-25T22:29:23.488Z,100227.66
2018-07-25T22:31:52.469Z,100228.86
2018-07-25T22:34:23.520Z,100231.40
2018-07-25T22:36:53.238Z,100229.64
2018-07-25T22:39:28.081Z,100231.77
2018-07-25T22:42:02.395Z,100230.61
2018-07-25T22:44:36.788Z,100234.50
2018-07-25T22:47:24.936Z,100236.07
2018-07-25T22:50:01.219Z,100243.30
2018-07-25T22:52:34.916Z,100242.34
2018-07-25T22:55:05.127Z,100237.27
2018-07-25T23:00:38.306Z,100242.17
2018-07-25T23:03:12.036Z,100238.67
2018-07-25T23:05:40.934Z,100241.40
2018-07-25T23:08:14.754Z,100237.70
2018-07-25T23:10:43.798Z,100243.16
2018-07-25T23:13:14.246Z,100244.33
2018-07-25T23:15:46.353Z,100240.63
2018-07-25T23:18:24.869Z,100248.22
2018-07-25T23:20:58.168Z,100253.31
2018-07-25T23:23:34.002Z,100254.27
2018-07-25T23:26:09.050Z,100248.24
2018-07-25T23:28:39.418Z,100252.93
2018-07-25T23:31:09.778Z,100254.89
2018-07-25T23:33:40.944Z,100247.42
2018-07-25T23:36:16.228Z,100257.37
2018-07-25T23:41:47.021Z,100249.00
2018-07-25T23:44:21.065Z,100249.76
2018-07-25T23:46:50.849Z,100252.88
2018-07-25T23:49:33.351Z,100248.61
2018-07-25T23:52:04.511Z,100252.29
2018-07-25T23:54:36.643Z,100248.22
